Portada
METAR-TAF:

METAR-TAF

Aeroports :

Sialkot, Pakistan

latitud: 32-32N, longitud: 74-22E, altitud: 255 m

Observació

L'informe es va fer fa 1 hora i 11 minuts, a les 12:00 UTC
Vent 4 kt del Sud-Oest
Temperatura 33°C
Humitat 63%
Pressió 1005 hPa
Visibilitat: 5000 m
fum

METAR: OPST 261200Z 23004KT 5000 FU NSC 33/25 Q1005 NOSIG RH61

Hora: 18:11 (13:11 UTC)

Pronòstic

L'informe es va fer fa 3 hores i 26 minuts, a les 09:45 UTC
Pronòstic vàlid del 26 a les 12 UTC al 27 a les 18 UTC
Vent 4 kt del Sud-Oest
Visibilitat: 5000 m
Escasses núvols a una alçada de 4000 ft
fum

TAF: OPST 260945Z 2612/2718 23004KT 5000 FU FEW040 TX34/2710Z TN25/2700Z

Observacions i pronòstics meteorològics de més de 4000 aeroports (METAR i TAF).

Les estacions disponibles són els punts grocs i vermells al mapa.

Posi el ratolí al punt desitjat per veure el nom de l'estació.

Feu clic per veure les observacions i els pronòstics meteorològics.

Per canviar el mapa: feu clic els botons verds amb una creu de color negre per apropar; al botó verd amb un guió per allunyar la imatge; o en les fletxes verdes per a mapes adjacents.


METAR-TAF: